sensor_id;sensor_type;location;lat;lon;timestamp;pressure;altitude;pressure_sealevel;temperature;humidity
11985;BME280;6052;53.246;10.368;2023-05-07T00:00:23;101672.38;;;11.56;100.00
11985;BME280;6052;53.246;10.368;2023-05-07T00:02:53;101661.88;;;11.48;100.00
11985;BME280;6052;53.246;10.368;2023-05-07T00:05:22;101664.16;;;11.51;100.00
11985;BME280;6052;53.246;10.368;2023-05-07T00:07:52;101671.00;;;11.47;100.00
11985;BME280;6052;53.246;10.368;2023-05-07T00:10:24;101672.94;;;11.40;100.00
11985;BME280;6052;53.246;10.368;2023-05-07T00:12:54;101664.41;;;11.43;100.00
11985;BME280;6052;53.246;10.368;2023-05-07T00:15:26;101664.88;;;11.40;100.00
11985;BME280;6052;53.246;10.368;2023-05-07T00:17:55;101662.44;;;11.32;100.00
11985;BME280;6052;53.246;10.368;2023-05-07T00:20:26;101663.66;;;11.05;100.00
11985;BME280;6052;53.246;10.368;2023-05-07T00:22:55;101665.06;;;11.38;100.00
11985;BME280;6052;53.246;10.368;2023-05-07T00:25:25;101654.22;;;11.20;100.00
11985;BME280;6052;53.246;10.368;2023-05-07T00:27:54;101661.59;;;11.31;100.00
11985;BME280;6052;53.246;10.368;2023-05-07T00:30:27;101660.44;;;11.21;100.00
11985;BME280;6052;53.246;10.368;2023-05-07T00:32:57;101659.16;;;11.30;100.00
11985;BME280;6052;53.246;10.368;2023-05-07T00:35:28;101667.38;;;11.35;100.00
11985;BME280;6052;53.246;10.368;2023-05-07T00:37:58;101652.94;;;11.29;100.00
11985;BME280;6052;53.246;10.368;2023-05-07T00:40:28;101662.84;;;11.29;100.00
11985;BME280;6052;53.246;10.368;2023-05-07T00:42:58;101658.09;;;11.31;100.00
11985;BME280;6052;53.246;10.368;2023-05-07T00:45:30;101660.13;;;11.35;100.00
11985;BME280;6052;53.246;10.368;2023-05-07T00:48:00;101658.38;;;11.47;100.00
11985;BME280;6052;53.246;10.368;2023-05-07T00:50:33;101657.81;;;11.39;100.00
11985;BME280;6052;53.246;10.368;2023-05-07T00:53:02;101659.69;;;11.38;100.00
11985;BME280;6052;53.246;10.368;2023-05-07T00:55:32;101659.41;;;11.22;100.00
11985;BME280;6052;53.246;10.368;2023-05-07T00:58:02;101648.66;;;11.22;100.00
11985;BME280;6052;53.246;10.368;2023-05-07T01:00:34;101640.72;;;11.02;100.00
11985;BME280;6052;53.246;10.368;2023-05-07T01:03:09;101656.34;;;11.18;100.00
11985;BME280;6052;53.246;10.368;2023-05-07T01:05:39;101640.75;;;11.27;100.00
11985;BME280;6052;53.246;10.368;2023-05-07T01:08:10;101640.50;;;11.35;100.00
11985;BME280;6052;53.246;10.368;2023-05-07T01:10:39;101640.31;;;11.54;100.00
11985;BME280;6052;53.246;10.368;2023-05-07T01:13:09;101634.56;;;11.51;100.00
11985;BME280;6052;53.246;10.368;2023-05-07T01:15:44;101639.78;;;11.46;100.00
11985;BME280;6052;53.246;10.368;2023-05-07T01:18:13;101637.31;;;11.44;100.00
11985;BME280;6052;53.246;10.368;2023-05-07T01:20:43;101637.97;;;11.40;100.00
11985;BME280;6052;53.246;10.368;2023-05-07T01:23:15;101646.75;;;11.53;100.00
11985;BME280;6052;53.246;10.368;2023-05-07T01:25:51;101638.84;;;11.58;100.00
11985;BME280;6052;53.246;10.368;2023-05-07T01:28:20;101643.31;;;11.46;100.00
11985;BME280;6052;53.246;10.368;2023-05-07T01:30:53;101643.31;;;11.15;100.00
11985;BME280;6052;53.246;10.368;2023-05-07T01:33:24;101641.69;;;11.14;100.00
11985;BME280;6052;53.246;10.368;2023-05-07T01:35:54;101637.34;;;11.13;100.00
11985;BME280;6052;53.246;10.368;2023-05-07T01:38:27;101639.06;;;11.01;100.00
11985;BME280;6052;53.246;10.368;2023-05-07T01:40:57;101638.03;;;11.02;100.00
11985;BME280;6052;53.246;10.368;2023-05-07T01:43:29;101638.25;;;11.01;100.00
11985;BME280;6052;53.246;10.368;2023-05-07T01:45:59;101639.88;;;11.08;100.00
11985;BME280;6052;53.246;10.368;2023-05-07T01:48:30;101632.75;;;11.20;100.00
11985;BME280;6052;53.246;10.368;2023-05-07T01:51:00;101634.78;;;11.25;100.00
11985;BME280;6052;53.246;10.368;2023-05-07T01:53:38;101641.88;;;11.44;100.00
11985;BME280;6052;53.246;10.368;2023-05-07T01:56:08;101638.56;;;11.42;100.00
11985;BME280;6052;53.246;10.368;2023-05-07T01:58:37;101646.47;;;11.37;100.00
11985;BME280;6052;53.246;10.368;2023-05-07T02:01:07;101645.78;;;11.17;100.00
11985;BME280;6052;53.246;10.368;2023-05-07T02:03:36;101650.41;;;11.34;100.00
11985;BME280;6052;53.246;10.368;2023-05-07T02:06:06;101653.44;;;11.20;100.00
11985;BME280;6052;53.246;10.368;2023-05-07T02:08:38;101656.78;;;11.09;100.00
11985;BME280;6052;53.246;10.368;2023-05-07T02:11:08;101655.88;;;11.21;100.00
11985;BME280;6052;53.246;10.368;2023-05-07T02:13:37;101663.88;;;11.03;100.00
11985;BME280;6052;53.246;10.368;2023-05-07T02:16:07;101659.31;;;11.04;100.00
11985;BME280;6052;53.246;10.368;2023-05-07T02:18:37;101662.13;;;10.84;100.00
11985;BME280;6052;53.246;10.368;2023-05-07T02:21:06;101669.78;;;10.81;100.00
11985;BME280;6052;53.246;10.368;2023-05-07T02:23:38;101667.91;;;10.81;100.00
11985;BME280;6052;53.246;10.368;2023-05-07T02:26:08;101668.91;;;10.87;100.00
11985;BME280;6052;53.246;10.368;2023-05-07T02:28:37;101663.81;;;10.72;100.00
11985;BME280;6052;53.246;10.368;2023-05-07T02:31:07;101673.28;;;10.81;100.00
11985;BME280;6052;53.246;10.368;2023-05-07T02:33:36;101678.97;;;10.98;100.00
11985;BME280;6052;53.246;10.368;2023-05-07T02:36:07;101667.69;;;10.83;100.00
11985;BME280;6052;53.246;10.368;2023-05-07T02:38:39;101672.38;;;10.94;100.00
11985;BME280;6052;53.246;10.368;2023-05-07T02:41:08;101677.31;;;10.66;100.00
11985;BME280;6052;53.246;10.368;2023-05-07T02:43:38;101677.31;;;10.66;100.00
11985;BME280;6052;53.246;10.368;2023-05-07T02:46:08;101673.09;;;10.76;100.00
11985;BME280;6052;53.246;10.368;2023-05-07T02:48:38;101676.59;;;10.83;100.00
11985;BME280;6052;53.246;10.368;2023-05-07T02:51:07;101682.53;;;10.92;100.00
11985;BME280;6052;53.246;10.368;2023-05-07T02:53:39;101680.06;;;10.90;100.00
11985;BME280;6052;53.246;10.368;2023-05-07T02:56:09;101679.88;;;10.85;100.00
11985;BME280;6052;53.246;10.368;2023-05-07T02:58:38;101673.59;;;10.98;100.00
11985;BME280;6052;53.246;10.368;2023-05-07T03:01:08;101669.09;;;10.92;100.00
11985;BME280;6052;53.246;10.368;2023-05-07T03:03:39;101666.63;;;10.90;100.00
11985;BME280;6052;53.246;10.368;2023-05-07T03:06:09;101672.56;;;10.99;100.00
11985;BME280;6052;53.246;10.368;2023-05-07T03:08:41;101669.88;;;10.99;100.00
11985;BME280;6052;53.246;10.368;2023-05-07T03:11:10;101670.31;;;10.96;100.00
11985;BME280;6052;53.246;10.368;2023-05-07T03:13:39;101673.38;;;11.06;100.00
11985;BME280;6052;53.246;10.368;2023-05-07T03:16:09;101669.28;;;10.97;100.00
11985;BME280;6052;53.246;10.368;2023-05-07T03:18:38;101675.00;;;11.07;100.00
11985;BME280;6052;53.246;10.368;2023-05-07T03:21:08;101678.56;;;11.01;100.00
11985;BME280;6052;53.246;10.368;2023-05-07T03:23:38;101680.19;;;11.02;100.00
11985;BME280;6052;53.246;10.368;2023-05-07T03:26:10;101676.44;;;11.09;100.00
11985;BME280;6052;53.246;10.368;2023-05-07T03:28:42;101675.56;;;11.15;100.00
11985;BME280;6052;53.246;10.368;2023-05-07T03:31:12;101680.69;;;11.23;100.00
11985;BME280;6052;53.246;10.368;2023-05-07T03:33:50;101686.31;;;11.15;100.00
11985;BME280;6052;53.246;10.368;2023-05-07T03:36:20;101679.13;;;11.09;100.00
11985;BME280;6052;53.246;10.368;2023-05-07T03:38:49;101677.28;;;11.10;100.00
11985;BME280;6052;53.246;10.368;2023-05-07T03:41:21;101670.41;;;11.14;100.00
11985;BME280;6052;53.246;10.368;2023-05-07T03:43:52;101675.38;;;11.10;100.00
11985;BME280;6052;53.246;10.368;2023-05-07T03:46:21;101672.19;;;10.89;100.00
11985;BME280;6052;53.246;10.368;2023-05-07T03:48:53;101674.84;;;10.95;100.00
11985;BME280;6052;53.246;10.368;2023-05-07T03:51:22;101678.28;;;10.71;100.00
11985;BME280;6052;53.246;10.368;2023-05-07T03:53:52;101679.84;;;10.92;100.00
11985;BME280;6052;53.246;10.368;2023-05-07T03:56:26;101675.91;;;10.94;100.00
11985;BME280;6052;53.246;10.368;2023-05-07T03:58:58;101675.78;;;10.76;100.00
11985;BME280;6052;53.246;10.368;2023-05-07T04:01:28;101684.34;;;10.98;100.00
11985;BME280;6052;53.246;10.368;2023-05-07T04:03:58;101681.50;;;10.93;100.00
11985;BME280;6052;53.246;10.368;2023-05-07T04:06:29;101673.84;;;10.90;100.00
11985;BME280;6052;53.246;10.368;2023-05-07T04:08:58;101682.78;;;10.84;100.00
11985;BME280;6052;53.246;10.368;2023-05-07T04:11:31;101680.06;;;10.90;100.00
11985;BME280;6052;53.246;10.368;2023-05-07T04:14:03;101678.31;;;11.02;100.00
11985;BME280;6052;53.246;10.368;2023-05-07T04:16:34;101685.00;;;11.24;100.00
11985;BME280;6052;53.246;10.368;2023-05-07T04:19:04;101689.13;;;11.27;100.00
11985;BME280;6052;53.246;10.368;2023-05-07T04:21:33;101690.59;;;11.23;100.00
11985;BME280;6052;53.246;10.368;2023-05-07T04:24:03;101691.53;;;11.04;100.00
11985;BME280;6052;53.246;10.368;2023-05-07T04:26:35;101689.22;;;11.14;100.00
11985;BME280;6052;53.246;10.368;2023-05-07T04:29:05;101690.88;;;11.15;100.00
11985;BME280;6052;53.246;10.368;2023-05-07T04:31:34;101680.88;;;10.91;100.00
11985;BME280;6052;53.246;10.368;2023-05-07T04:34:08;101686.16;;;11.04;100.00
11985;BME280;6052;53.246;10.368;2023-05-07T04:36:38;101694.59;;;11.14;100.00
11985;BME280;6052;53.246;10.368;2023-05-07T04:39:07;101693.22;;;11.05;100.00
11985;BME280;6052;53.246;10.368;2023-05-07T04:41:40;101697.78;;;10.98;100.00
11985;BME280;6052;53.246;10.368;2023-05-07T04:44:09;101689.13;;;10.96;100.00
11985;BME280;6052;53.246;10.368;2023-05-07T04:46:38;101697.34;;;11.07;100.00
11985;BME280;6052;53.246;10.368;2023-05-07T04:49:08;101695.25;;;11.09;100.00
11985;BME280;6052;53.246;10.368;2023-05-07T04:51:37;101705.34;;;11.14;100.00
11985;BME280;6052;53.246;10.368;2023-05-07T04:54:10;101702.25;;;11.10;100.00
11985;BME280;6052;53.246;10.368;2023-05-07T04:56:42;101705.09;;;11.22;100.00
11985;BME280;6052;53.246;10.368;2023-05-07T04:59:12;101700.47;;;11.29;100.00
11985;BME280;6052;53.246;10.368;2023-05-07T05:01:41;101699.88;;;11.27;100.00
11985;BME280;6052;53.246;10.368;2023-05-07T05:04:12;101712.63;;;11.38;100.00
11985;BME280;6052;53.246;10.368;2023-05-07T05:06:42;101709.72;;;11.08;100.00
11985;BME280;6052;53.246;10.368;2023-05-07T05:09:11;101719.13;;;11.24;100.00
11985;BME280;6052;53.246;10.368;2023-05-07T05:11:44;101714.38;;;11.26;100.00
11985;BME280;6052;53.246;10.368;2023-05-07T05:14:13;101710.09;;;11.12;100.00
11985;BME280;6052;53.246;10.368;2023-05-07T05:16:43;101715.84;;;11.22;100.00
11985;BME280;6052;53.246;10.368;2023-05-07T05:19:12;101717.75;;;11.15;100.00
11985;BME280;6052;53.246;10.368;2023-05-07T05:21:42;101725.25;;;11.00;100.00
11985;BME280;6052;53.246;10.368;2023-05-07T05:24:11;101718.31;;;11.23;100.00
11985;BME280;6052;53.246;10.368;2023-05-07T05:26:44;101716.72;;;11.16;100.00
11985;BME280;6052;53.246;10.368;2023-05-07T05:29:13;101725.13;;;11.26;100.00
11985;BME280;6052;53.246;10.368;2023-05-07T05:31:42;101717.47;;;11.23;100.00
11985;BME280;6052;53.246;10.368;2023-05-07T05:34:12;101724.06;;;11.27;100.00
11985;BME280;6052;53.246;10.368;2023-05-07T05:36:41;101718.38;;;11.10;100.00
11985;BME280;6052;53.246;10.368;2023-05-07T05:39:11;101720.50;;;11.02;100.00
11985;BME280;6052;53.246;10.368;2023-05-07T05:41:40;101723.41;;;11.00;100.00
11985;BME280;6052;53.246;10.368;2023-05-07T05:44:12;101723.97;;;11.09;100.00
11985;BME280;6052;53.246;10.368;2023-05-07T05:46:42;101727.09;;;11.06;100.00
11985;BME280;6052;53.246;10.368;2023-05-07T05:49:11;101725.81;;;11.15;100.00
11985;BME280;6052;53.246;10.368;2023-05-07T05:51:40;101729.47;;;11.20;100.00
11985;BME280;6052;53.246;10.368;2023-05-07T05:54:10;101732.63;;;11.17;100.00
11985;BME280;6052;53.246;10.368;2023-05-07T05:56:39;101735.16;;;11.06;100.00
11985;BME280;6052;53.246;10.368;2023-05-07T05:59:09;101743.88;;;10.95;100.00
11985;BME280;6052;53.246;10.368;2023-05-07T06:01:41;101741.28;;;11.19;100.00
11985;BME280;6052;53.246;10.368;2023-05-07T06:04:10;101741.63;;;10.92;100.00
11985;BME280;6052;53.246;10.368;2023-05-07T06:06:40;101744.66;;;11.08;100.00
11985;BME280;6052;53.246;10.368;2023-05-07T06:09:09;101743.41;;;11.11;100.00
11985;BME280;6052;53.246;10.368;2023-05-07T06:11:38;101741.50;;;11.11;100.00
11985;BME280;6052;53.246;10.368;2023-05-07T06:14:08;101745.94;;;10.99;100.00
11985;BME280;6052;53.246;10.368;2023-05-07T06:16:37;101750.84;;;11.02;100.00
11985;BME280;6052;53.246;10.368;2023-05-07T06:19:09;101746.06;;;11.17;100.00
11985;BME280;6052;53.246;10.368;2023-05-07T06:21:39;101750.97;;;11.20;100.00
11985;BME280;6052;53.246;10.368;2023-05-07T06:24:09;101747.03;;;11.23;100.00
11985;BME280;6052;53.246;10.368;2023-05-07T06:26:39;101755.59;;;11.07;100.00
11985;BME280;6052;53.246;10.368;2023-05-07T06:29:08;101751.38;;;11.24;100.00
11985;BME280;6052;53.246;10.368;2023-05-07T06:31:37;101752.34;;;11.36;100.00
11985;BME280;6052;53.246;10.368;2023-05-07T06:34:09;101746.63;;;11.26;100.00
11985;BME280;6052;53.246;10.368;2023-05-07T06:36:40;101756.34;;;11.20;100.00
11985;BME280;6052;53.246;10.368;2023-05-07T06:39:10;101754.72;;;11.19;100.00
11985;BME280;6052;53.246;10.368;2023-05-07T06:41:39;101755.75;;;11.18;100.00
11985;BME280;6052;53.246;10.368;2023-05-07T06:44:09;101750.06;;;10.95;100.00
11985;BME280;6052;53.246;10.368;2023-05-07T06:46:38;101754.00;;;10.99;100.00
11985;BME280;6052;53.246;10.368;2023-05-07T06:49:10;101761.81;;;11.07;100.00
11985;BME280;6052;53.246;10.368;2023-05-07T06:51:40;101754.16;;;11.11;100.00
11985;BME280;6052;53.246;10.368;2023-05-07T06:54:09;101757.91;;;11.03;100.00
11985;BME280;6052;53.246;10.368;2023-05-07T06:56:39;101761.13;;;11.18;100.00
11985;BME280;6052;53.246;10.368;2023-05-07T06:59:08;101768.81;;;11.15;100.00
11985;BME280;6052;53.246;10.368;2023-05-07T07:01:37;101766.31;;;11.20;100.00
11985;BME280;6052;53.246;10.368;2023-05-07T07:04:09;101775.38;;;11.19;100.00
11985;BME280;6052;53.246;10.368;2023-05-07T07:06:39;101759.50;;;11.17;100.00
11985;BME280;6052;53.246;10.368;2023-05-07T07:09:08;101765.66;;;11.18;100.00
11985;BME280;6052;53.246;10.368;2023-05-07T07:11:38;101761.47;;;11.35;100.00
11985;BME280;6052;53.246;10.368;2023-05-07T07:14:07;101758.50;;;11.43;100.00
11985;BME280;6052;53.246;10.368;2023-05-07T07:16:37;101759.78;;;11.34;100.00
11985;BME280;6052;53.246;10.368;2023-05-07T07:19:06;101761.81;;;11.45;100.00
11985;BME280;6052;53.246;10.368;2023-05-07T07:21:38;101769.19;;;11.18;100.00
11985;BME280;6052;53.246;10.368;2023-05-07T07:24:10;101772.22;;;11.35;100.00
11985;BME280;6052;53.246;10.368;2023-05-07T07:26:40;101767.81;;;11.40;100.00
11985;BME280;6052;53.246;10.368;2023-05-07T07:29:09;101757.47;;;11.44;100.00
11985;BME280;6052;53.246;10.368;2023-05-07T07:31:38;101759.72;;;11.47;100.00
11985;BME280;6052;53.246;10.368;2023-05-07T07:34:08;101761.41;;;11.41;100.00
11985;BME280;6052;53.246;10.368;2023-05-07T07:36:40;101773.13;;;11.53;100.00
11985;BME280;6052;53.246;10.368;2023-05-07T07:39:12;101773.63;;;11.44;100.00
11985;BME280;6052;53.246;10.368;2023-05-07T07:41:42;101769.59;;;11.53;100.00
11985;BME280;6052;53.246;10.368;2023-05-07T07:44:11;101769.69;;;11.40;100.00
11985;BME280;6052;53.246;10.368;2023-05-07T07:46:42;101774.91;;;11.35;100.00
11985;BME280;6052;53.246;10.368;2023-05-07T07:49:11;101772.28;;;11.22;100.00
11985;BME280;6052;53.246;10.368;2023-05-07T07:51:43;101762.97;;;11.24;100.00
11985;BME280;6052;53.246;10.368;2023-05-07T07:54:13;101762.09;;;11.30;100.00
11985;BME280;6052;53.246;10.368;2023-05-07T07:56:42;101766.22;;;11.33;100.00
11985;BME280;6052;53.246;10.368;2023-05-07T07:59:12;101772.44;;;11.27;100.00
11985;BME280;6052;53.246;10.368;2023-05-07T08:01:46;101772.75;;;11.50;100.00
11985;BME280;6052;53.246;10.368;2023-05-07T08:04:20;101781.56;;;11.57;100.00
11985;BME280;6052;53.246;10.368;2023-05-07T08:06:52;101774.00;;;11.47;100.00
11985;BME280;6052;53.246;10.368;2023-05-07T08:09:22;101770.09;;;11.43;100.00
11985;BME280;6052;53.246;10.368;2023-05-07T08:11:52;101780.03;;;11.36;100.00
11985;BME280;6052;53.246;10.368;2023-05-07T08:14:22;101775.63;;;11.48;100.00
11985;BME280;6052;53.246;10.368;2023-05-07T08:16:51;101777.28;;;11.49;100.00
11985;BME280;6052;53.246;10.368;2023-05-07T08:19:21;101784.25;;;11.57;100.00
11985;BME280;6052;53.246;10.368;2023-05-07T08:21:53;101779.59;;;11.77;100.00
11985;BME280;6052;53.246;10.368;2023-05-07T08:24:23;101781.34;;;11.65;100.00
11985;BME280;6052;53.246;10.368;2023-05-07T08:26:52;101780.53;;;11.64;100.00
11985;BME280;6052;53.246;10.368;2023-05-07T08:29:21;101783.34;;;11.76;100.00
11985;BME280;6052;53.246;10.368;2023-05-07T08:31:51;101785.31;;;11.87;100.00
11985;BME280;6052;53.246;10.368;2023-05-07T08:34:21;101791.16;;;11.84;100.00
11985;BME280;6052;53.246;10.368;2023-05-07T08:36:54;101791.97;;;11.84;100.00
11985;BME280;6052;53.246;10.368;2023-05-07T08:39:23;101795.31;;;11.80;100.00
11985;BME280;6052;53.246;10.368;2023-05-07T08:41:55;101789.97;;;11.73;100.00
11985;BME280;6052;53.246;10.368;2023-05-07T08:44:26;101795.91;;;11.82;100.00
11985;BME280;6052;53.246;10.368;2023-05-07T08:46:56;101806.84;;;11.87;100.00
11985;BME280;6052;53.246;10.368;2023-05-07T08:49:27;101801.50;;;11.80;100.00
11985;BME280;6052;53.246;10.368;2023-05-07T08:52:00;101801.13;;;11.77;100.00
11985;BME280;6052;53.246;10.368;2023-05-07T08:54:30;101809.31;;;11.88;100.00
11985;BME280;6052;53.246;10.368;2023-05-07T08:57:00;101809.63;;;12.05;100.00
11985;BME280;6052;53.246;10.368;2023-05-07T08:59:29;101813.78;;;12.01;100.00
11985;BME280;6052;53.246;10.368;2023-05-07T09:01:59;101812.25;;;12.11;100.00
11985;BME280;6052;53.246;10.368;2023-05-07T09:04:29;101805.41;;;12.15;100.00
11985;BME280;6052;53.246;10.368;2023-05-07T09:07:01;101817.13;;;12.21;100.00
11985;BME280;6052;53.246;10.368;2023-05-07T09:09:32;101823.91;;;12.05;100.00
11985;BME280;6052;53.246;10.368;2023-05-07T09:12:01;101820.44;;;11.98;100.00
11985;BME280;6052;53.246;10.368;2023-05-07T09:14:31;101820.63;;;11.97;100.00
11985;BME280;6052;53.246;10.368;2023-05-07T09:17:00;101821.63;;;12.02;100.00
11985;BME280;6052;53.246;10.368;2023-05-07T09:19:30;101832.38;;;12.09;100.00
11985;BME280;6052;53.246;10.368;2023-05-07T09:22:03;101822.94;;;11.93;100.00
11985;BME280;6052;53.246;10.368;2023-05-07T09:24:33;101823.25;;;12.10;100.00
11985;BME280;6052;53.246;10.368;2023-05-07T09:27:04;101824.94;;;12.04;100.00
11985;BME280;6052;53.246;10.368;2023-05-07T09:29:36;101829.34;;;11.99;100.00
11985;BME280;6052;53.246;10.368;2023-05-07T09:32:06;101830.25;;;12.11;100.00
11985;BME280;6052;53.246;10.368;2023-05-07T09:34:36;101821.97;;;12.12;100.00
11985;BME280;6052;53.246;10.368;2023-05-07T09:37:08;101825.22;;;12.21;100.00
11985;BME280;6052;53.246;10.368;2023-05-07T09:39:38;101822.31;;;12.22;100.00
11985;BME280;6052;53.246;10.368;2023-05-07T09:42:08;101828.78;;;12.15;100.00
11985;BME280;6052;53.246;10.368;2023-05-07T09:44:38;101821.25;;;12.23;100.00
11985;BME280;6052;53.246;10.368;2023-05-07T09:47:08;101817.47;;;12.31;99.89
11985;BME280;6052;53.246;10.368;2023-05-07T09:49:39;101834.38;;;12.13;100.00
11985;BME280;6052;53.246;10.368;2023-05-07T09:52:13;101826.75;;;12.35;100.00
11985;BME280;6052;53.246;10.368;2023-05-07T09:54:43;101827.03;;;12.27;100.00
11985;BME280;6052;53.246;10.368;2023-05-07T09:57:15;101832.81;;;12.30;100.00
11985;BME280;6052;53.246;10.368;2023-05-07T09:59:45;101834.81;;;12.35;99.89
11985;BME280;6052;53.246;10.368;2023-05-07T10:02:17;101832.66;;;12.25;100.00
11985;BME280;6052;53.246;10.368;2023-05-07T10:04:51;101835.72;;;12.29;100.00
11985;BME280;6052;53.246;10.368;2023-05-07T10:07:27;101840.44;;;12.33;99.99
11985;BME280;6052;53.246;10.368;2023-05-07T10:09:59;101840.97;;;12.17;100.00
11985;BME280;6052;53.246;10.368;2023-05-07T10:12:32;101841.47;;;12.32;100.00
11985;BME280;6052;53.246;10.368;2023-05-07T10:15:07;101844.94;;;12.39;99.23
11985;BME280;6052;53.246;10.368;2023-05-07T10:17:39;101844.16;;;12.32;99.74
11985;BME280;6052;53.246;10.368;2023-05-07T10:20:10;101838.72;;;12.39;99.63
11985;BME280;6052;53.246;10.368;2023-05-07T10:22:45;101835.97;;;12.45;99.29
11985;BME280;6052;53.246;10.368;2023-05-07T10:25:18;101835.81;;;12.40;99.61
11985;BME280;6052;53.246;10.368;2023-05-07T10:27:51;101837.31;;;12.36;99.08
11985;BME280;6052;53.246;10.368;2023-05-07T10:30:29;101841.25;;;12.34;99.11
11985;BME280;6052;53.246;10.368;2023-05-07T10:33:05;101839.06;;;12.49;98.88
11985;BME280;6052;53.246;10.368;2023-05-07T10:35:40;101828.53;;;12.65;98.24
11985;BME280;6052;53.246;10.368;2023-05-07T10:38:15;101829.13;;;12.49;97.64
11985;BME280;6052;53.246;10.368;2023-05-07T10:40:46;101832.06;;;12.66;98.34
11985;BME280;6052;53.246;10.368;2023-05-07T10:43:16;101838.03;;;12.68;98.07
11985;BME280;6052;53.246;10.368;2023-05-07T10:46:09;101830.69;;;12.57;97.53
11985;BME280;6052;53.246;10.368;2023-05-07T10:49:09;101831.66;;;12.62;96.89
11985;BME280;6052;53.246;10.368;2023-05-07T10:51:42;101828.06;;;12.50;98.20
11985;BME280;6052;53.246;10.368;2023-05-07T10:54:22;101833.81;;;12.54;98.55
11985;BME280;6052;53.246;10.368;2023-05-07T11:03:06;101841.75;;;12.49;97.66
11985;BME280;6052;53.246;10.368;2023-05-07T11:05:45;101839.72;;;12.44;96.71
11985;BME280;6052;53.246;10.368;2023-05-07T11:08:21;101834.81;;;12.59;96.91
11985;BME280;6052;53.246;10.368;2023-05-07T11:10:55;101840.00;;;12.61;97.21
11985;BME280;6052;53.246;10.368;2023-05-07T11:13:45;101845.06;;;12.69;97.75
11985;BME280;6052;53.246;10.368;2023-05-07T11:16:24;101842.19;;;12.88;98.01
11985;BME280;6052;53.246;10.368;2023-05-07T11:19:00;101836.50;;;12.96;97.48
11985;BME280;6052;53.246;10.368;2023-05-07T11:21:34;101827.50;;;12.84;96.18
11985;BME280;6052;53.246;10.368;2023-05-07T11:24:06;101842.66;;;13.03;96.29
11985;BME280;6052;53.246;10.368;2023-05-07T11:26:54;101835.47;;;12.97;95.33
11985;BME280;6052;53.246;10.368;2023-05-07T11:29:25;101836.81;;;13.06;95.63
11985;BME280;6052;53.246;10.368;2023-05-07T11:32:01;101831.50;;;13.18;97.35
11985;BME280;6052;53.246;10.368;2023-05-07T11:34:33;101839.06;;;13.09;95.80
11985;BME280;6052;53.246;10.368;2023-05-07T11:37:04;101837.78;;;13.30;95.33
11985;BME280;6052;53.246;10.368;2023-05-07T11:39:37;101834.84;;;13.31;94.56
11985;BME280;6052;53.246;10.368;2023-05-07T11:42:30;101836.97;;;13.29;93.90
11985;BME280;6052;53.246;10.368;2023-05-07T11:45:01;101838.16;;;13.33;93.62
11985;BME280;6052;53.246;10.368;2023-05-07T11:47:33;101835.50;;;13.45;92.74
11985;BME280;6052;53.246;10.368;2023-05-07T11:50:06;101835.66;;;13.50;92.50
11985;BME280;6052;53.246;10.368;2023-05-07T11:52:37;101831.34;;;13.60;92.67
11985;BME280;6052;53.246;10.368;2023-05-07T11:55:08;101828.50;;;13.55;92.14
11985;BME280;6052;53.246;10.368;2023-05-07T11:57:42;101839.28;;;13.44;92.17
11985;BME280;6052;53.246;10.368;2023-05-07T12:00:16;101820.31;;;13.62;92.80
11985;BME280;6052;53.246;10.368;2023-05-07T12:02:46;101832.00;;;13.74;92.16
11985;BME280;6052;53.246;10.368;2023-05-07T12:05:17;101816.44;;;13.58;92.21
11985;BME280;6052;53.246;10.368;2023-05-07T12:07:56;101817.75;;;13.67;90.95
11985;BME280;6052;53.246;10.368;2023-05-07T12:10:26;101816.69;;;13.68;90.52
11985;BME280;6052;53.246;10.368;2023-05-07T12:12:59;101821.94;;;13.92;92.76
11985;BME280;6052;53.246;10.368;2023-05-07T12:15:28;101825.06;;;13.78;91.31
11985;BME280;6052;53.246;10.368;2023-05-07T12:17:58;101830.75;;;13.88;90.26
11985;BME280;6052;53.246;10.368;2023-05-07T12:20:27;101829.56;;;13.84;90.30
11985;BME280;6052;53.246;10.368;2023-05-07T12:22:57;101835.81;;;13.96;90.24
11985;BME280;6052;53.246;10.368;2023-05-07T12:25:30;101823.03;;;14.03;89.60
11985;BME280;6052;53.246;10.368;2023-05-07T12:28:03;101826.41;;;13.98;89.33
11985;BME280;6052;53.246;10.368;2023-05-07T12:30:36;101831.00;;;14.09;88.54
11985;BME280;6052;53.246;10.368;2023-05-07T12:33:06;101831.47;;;13.95;86.61
11985;BME280;6052;53.246;10.368;2023-05-07T12:35:40;101820.88;;;14.23;88.03
11985;BME280;6052;53.246;10.368;2023-05-07T12:38:11;101817.56;;;14.32;87.08
11985;BME280;6052;53.246;10.368;2023-05-07T12:40:42;101824.41;;;14.46;87.51
11985;BME280;6052;53.246;10.368;2023-05-07T12:43:18;101814.78;;;14.50;87.07
11985;BME280;6052;53.246;10.368;2023-05-07T12:45:49;101813.84;;;14.56;86.98
11985;BME280;6052;53.246;10.368;2023-05-07T12:48:20;101817.81;;;14.65;85.63
11985;BME280;6052;53.246;10.368;2023-05-07T12:50:51;101820.53;;;14.65;84.44
11985;BME280;6052;53.246;10.368;2023-05-07T12:53:23;101823.94;;;14.49;84.17
11985;BME280;6052;53.246;10.368;2023-05-07T12:55:55;101806.19;;;14.65;85.76
11985;BME280;6052;53.246;10.368;2023-05-07T12:58:28;101821.72;;;14.69;84.84
11985;BME280;6052;53.246;10.368;2023-05-07T13:00:59;101809.09;;;14.75;84.13
11985;BME280;6052;53.246;10.368;2023-05-07T13:03:35;101813.09;;;14.72;83.25
11985;BME280;6052;53.246;10.368;2023-05-07T13:06:07;101812.41;;;14.65;83.57
11985;BME280;6052;53.246;10.368;2023-05-07T13:08:38;101810.28;;;14.79;83.39